sensor_id;sensor_type;location;lat;lon;timestamp;P1;durP1;ratioP1;P2;durP2;ratioP2
35646;SDS011;28680;45.642;13.756;2023-05-07T00:00:09;7.13;;;4.38;;
35646;SDS011;28680;45.642;13.756;2023-05-07T00:02:36;7.03;;;4.43;;
35646;SDS011;28680;45.642;13.756;2023-05-07T00:05:02;8.98;;;4.43;;
35646;SDS011;28680;45.642;13.756;2023-05-07T00:07:29;8.25;;;4.30;;
35646;SDS011;28680;45.642;13.756;2023-05-07T00:09:55;7.40;;;4.03;;
35646;SDS011;28680;45.642;13.756;2023-05-07T00:12:23;6.68;;;4.40;;
35646;SDS011;28680;45.642;13.756;2023-05-07T00:14:50;6.57;;;4.65;;
35646;SDS011;28680;45.642;13.756;2023-05-07T00:17:16;11.27;;;5.70;;
35646;SDS011;28680;45.642;13.756;2023-05-07T00:19:42;10.05;;;5.15;;
35646;SDS011;28680;45.642;13.756;2023-05-07T00:22:07;9.07;;;5.43;;
35646;SDS011;28680;45.642;13.756;2023-05-07T00:24:33;7.70;;;5.53;;
35646;SDS011;28680;45.642;13.756;2023-05-07T00:26:59;8.75;;;5.00;;
35646;SDS011;28680;45.642;13.756;2023-05-07T00:29:25;7.70;;;4.70;;
35646;SDS011;28680;45.642;13.756;2023-05-07T00:31:51;6.57;;;4.88;;
35646;SDS011;28680;45.642;13.756;2023-05-07T00:34:19;11.52;;;4.70;;
35646;SDS011;28680;45.642;13.756;2023-05-07T00:36:45;10.70;;;4.95;;
35646;SDS011;28680;45.642;13.756;2023-05-07T00:39:11;9.27;;;4.78;;
35646;SDS011;28680;45.642;13.756;2023-05-07T00:41:37;7.03;;;4.93;;
35646;SDS011;28680;45.642;13.756;2023-05-07T00:44:02;9.90;;;4.57;;
35646;SDS011;28680;45.642;13.756;2023-05-07T00:46:28;9.60;;;4.50;;
35646;SDS011;28680;45.642;13.756;2023-05-07T00:48:57;12.73;;;4.80;;
35646;SDS011;28680;45.642;13.756;2023-05-07T00:51:25;24.15;;;5.28;;
35646;SDS011;28680;45.642;13.756;2023-05-07T00:53:52;9.23;;;4.97;;
35646;SDS011;28680;45.642;13.756;2023-05-07T00:56:20;11.05;;;5.50;;
35646;SDS011;28680;45.642;13.756;2023-05-07T00:58:47;8.23;;;5.47;;
35646;SDS011;28680;45.642;13.756;2023-05-07T01:01:13;16.13;;;5.30;;
35646;SDS011;28680;45.642;13.756;2023-05-07T01:03:41;11.10;;;5.47;;
35646;SDS011;28680;45.642;13.756;2023-05-07T01:06:07;9.63;;;5.57;;
35646;SDS011;28680;45.642;13.756;2023-05-07T01:08:36;8.25;;;5.13;;
35646;SDS011;28680;45.642;13.756;2023-05-07T01:11:04;7.70;;;4.65;;
35646;SDS011;28680;45.642;13.756;2023-05-07T01:13:35;6.97;;;4.70;;
35646;SDS011;28680;45.642;13.756;2023-05-07T01:16:02;10.85;;;4.82;;
35646;SDS011;28680;45.642;13.756;2023-05-07T01:18:29;6.50;;;4.40;;
35646;SDS011;28680;45.642;13.756;2023-05-07T01:20:58;6.00;;;4.20;;
35646;SDS011;28680;45.642;13.756;2023-05-07T01:23:25;6.55;;;4.18;;
35646;SDS011;28680;45.642;13.756;2023-05-07T01:25:52;8.43;;;4.05;;
35646;SDS011;28680;45.642;13.756;2023-05-07T01:28:19;7.20;;;3.80;;
35646;SDS011;28680;45.642;13.756;2023-05-07T01:30:47;6.80;;;3.80;;
35646;SDS011;28680;45.642;13.756;2023-05-07T01:33:18;5.75;;;3.65;;
35646;SDS011;28680;45.642;13.756;2023-05-07T01:35:47;5.75;;;4.35;;
35646;SDS011;28680;45.642;13.756;2023-05-07T01:38:18;4.68;;;3.55;;
35646;SDS011;28680;45.642;13.756;2023-05-07T01:40:45;7.25;;;4.13;;
35646;SDS011;28680;45.642;13.756;2023-05-07T01:43:11;8.40;;;3.97;;
35646;SDS011;28680;45.642;13.756;2023-05-07T01:45:37;5.05;;;3.78;;
35646;SDS011;28680;45.642;13.756;2023-05-07T01:48:05;4.47;;;3.45;;
35646;SDS011;28680;45.642;13.756;2023-05-07T01:50:33;6.97;;;3.72;;
35646;SDS011;28680;45.642;13.756;2023-05-07T01:53:01;4.38;;;3.53;;
35646;SDS011;28680;45.642;13.756;2023-05-07T01:55:27;6.18;;;3.28;;
35646;SDS011;28680;45.642;13.756;2023-05-07T01:57:53;6.00;;;3.45;;
35646;SDS011;28680;45.642;13.756;2023-05-07T02:00:19;5.70;;;3.17;;
35646;SDS011;28680;45.642;13.756;2023-05-07T02:02:45;4.40;;;3.10;;
35646;SDS011;28680;45.642;13.756;2023-05-07T02:05:11;4.22;;;3.15;;
35646;SDS011;28680;45.642;13.756;2023-05-07T02:07:37;4.75;;;2.80;;
35646;SDS011;28680;45.642;13.756;2023-05-07T02:10:03;5.03;;;2.85;;
35646;SDS011;28680;45.642;13.756;2023-05-07T02:12:30;5.22;;;3.42;;
35646;SDS011;28680;45.642;13.756;2023-05-07T02:14:55;5.00;;;3.00;;
35646;SDS011;28680;45.642;13.756;2023-05-07T02:17:21;4.05;;;2.97;;
35646;SDS011;28680;45.642;13.756;2023-05-07T02:19:47;6.57;;;3.25;;
35646;SDS011;28680;45.642;13.756;2023-05-07T02:22:13;6.97;;;3.70;;
35646;SDS011;28680;45.642;13.756;2023-05-07T02:24:39;6.15;;;3.10;;
35646;SDS011;28680;45.642;13.756;2023-05-07T02:27:05;4.55;;;3.50;;
35646;SDS011;28680;45.642;13.756;2023-05-07T02:29:30;4.88;;;3.53;;
35646;SDS011;28680;45.642;13.756;2023-05-07T02:31:56;4.50;;;3.58;;
35646;SDS011;28680;45.642;13.756;2023-05-07T02:34:22;5.18;;;3.42;;
35646;SDS011;28680;45.642;13.756;2023-05-07T02:36:48;7.97;;;3.65;;
35646;SDS011;28680;45.642;13.756;2023-05-07T02:39:14;5.55;;;3.42;;
35646;SDS011;28680;45.642;13.756;2023-05-07T02:41:40;5.90;;;3.53;;
35646;SDS011;28680;45.642;13.756;2023-05-07T02:44:06;4.47;;;3.60;;
35646;SDS011;28680;45.642;13.756;2023-05-07T02:46:32;5.72;;;3.92;;
35646;SDS011;28680;45.642;13.756;2023-05-07T02:48:58;7.13;;;3.67;;
35646;SDS011;28680;45.642;13.756;2023-05-07T02:51:25;4.40;;;3.75;;
35646;SDS011;28680;45.642;13.756;2023-05-07T02:53:52;6.72;;;3.38;;
35646;SDS011;28680;45.642;13.756;2023-05-07T02:56:18;4.93;;;3.38;;
35646;SDS011;28680;45.642;13.756;2023-05-07T02:58:44;6.95;;;3.67;;
35646;SDS011;28680;45.642;13.756;2023-05-07T03:01:09;4.10;;;3.45;;
35646;SDS011;28680;45.642;13.756;2023-05-07T03:03:35;5.25;;;3.60;;
35646;SDS011;28680;45.642;13.756;2023-05-07T03:06:01;5.47;;;4.03;;
35646;SDS011;28680;45.642;13.756;2023-05-07T03:08:27;5.03;;;3.60;;
35646;SDS011;28680;45.642;13.756;2023-05-07T03:10:53;8.63;;;3.90;;
35646;SDS011;28680;45.642;13.756;2023-05-07T03:13:19;5.50;;;3.85;;
35646;SDS011;28680;45.642;13.756;2023-05-07T03:15:46;7.28;;;4.10;;
35646;SDS011;28680;45.642;13.756;2023-05-07T03:18:12;6.97;;;3.90;;
35646;SDS011;28680;45.642;13.756;2023-05-07T03:20:38;4.40;;;3.17;;
35646;SDS011;28680;45.642;13.756;2023-05-07T03:23:04;8.77;;;3.45;;
35646;SDS011;28680;45.642;13.756;2023-05-07T03:25:31;5.85;;;3.50;;
35646;SDS011;28680;45.642;13.756;2023-05-07T03:27:57;5.18;;;3.60;;
35646;SDS011;28680;45.642;13.756;2023-05-07T03:30:23;5.45;;;3.47;;
35646;SDS011;28680;45.642;13.756;2023-05-07T03:32:49;9.30;;;3.80;;
35646;SDS011;28680;45.642;13.756;2023-05-07T03:35:15;5.35;;;3.60;;
35646;SDS011;28680;45.642;13.756;2023-05-07T03:37:42;5.78;;;3.65;;
35646;SDS011;28680;45.642;13.756;2023-05-07T03:40:08;5.70;;;3.50;;
35646;SDS011;28680;45.642;13.756;2023-05-07T03:42:35;5.50;;;3.30;;
35646;SDS011;28680;45.642;13.756;2023-05-07T03:45:01;5.05;;;3.40;;
35646;SDS011;28680;45.642;13.756;2023-05-07T03:47:27;4.43;;;3.50;;
35646;SDS011;28680;45.642;13.756;2023-05-07T03:49:53;5.85;;;3.17;;
35646;SDS011;28680;45.642;13.756;2023-05-07T03:52:19;6.90;;;3.15;;
35646;SDS011;28680;45.642;13.756;2023-05-07T03:54:49;5.47;;;3.42;;
35646;SDS011;28680;45.642;13.756;2023-05-07T03:57:15;4.07;;;3.17;;
35646;SDS011;28680;45.642;13.756;2023-05-07T03:59:41;5.82;;;3.50;;
35646;SDS011;28680;45.642;13.756;2023-05-07T04:02:07;5.25;;;3.50;;
35646;SDS011;28680;45.642;13.756;2023-05-07T04:04:32;4.80;;;3.58;;
35646;SDS011;28680;45.642;13.756;2023-05-07T04:06:58;4.25;;;3.30;;
35646;SDS011;28680;45.642;13.756;2023-05-07T04:09:25;5.20;;;3.45;;
35646;SDS011;28680;45.642;13.756;2023-05-07T04:11:51;4.55;;;3.58;;
35646;SDS011;28680;45.642;13.756;2023-05-07T04:14:17;5.15;;;3.45;;
35646;SDS011;28680;45.642;13.756;2023-05-07T04:16:42;6.15;;;3.28;;
35646;SDS011;28680;45.642;13.756;2023-05-07T04:19:08;4.75;;;3.30;;
35646;SDS011;28680;45.642;13.756;2023-05-07T04:21:34;4.85;;;3.65;;
35646;SDS011;28680;45.642;13.756;2023-05-07T04:24:00;8.00;;;3.45;;
35646;SDS011;28680;45.642;13.756;2023-05-07T04:26:28;10.27;;;3.78;;
35646;SDS011;28680;45.642;13.756;2023-05-07T04:28:54;6.70;;;3.80;;
35646;SDS011;28680;45.642;13.756;2023-05-07T04:31:20;4.53;;;3.65;;
35646;SDS011;28680;45.642;13.756;2023-05-07T04:33:46;7.82;;;3.90;;
35646;SDS011;28680;45.642;13.756;2023-05-07T04:36:12;6.13;;;3.80;;
35646;SDS011;28680;45.642;13.756;2023-05-07T04:38:37;5.72;;;4.03;;
35646;SDS011;28680;45.642;13.756;2023-05-07T04:41:04;7.43;;;3.90;;
35646;SDS011;28680;45.642;13.756;2023-05-07T04:43:31;5.82;;;3.97;;
35646;SDS011;28680;45.642;13.756;2023-05-07T04:45:57;6.55;;;4.20;;
35646;SDS011;28680;45.642;13.756;2023-05-07T04:48:23;4.88;;;4.10;;
35646;SDS011;28680;45.642;13.756;2023-05-07T04:50:49;4.80;;;3.85;;
35646;SDS011;28680;45.642;13.756;2023-05-07T04:53:16;5.15;;;3.90;;
35646;SDS011;28680;45.642;13.756;2023-05-07T04:55:43;4.45;;;3.50;;
35646;SDS011;28680;45.642;13.756;2023-05-07T04:58:10;5.40;;;3.60;;
35646;SDS011;28680;45.642;13.756;2023-05-07T05:00:37;8.70;;;3.92;;
35646;SDS011;28680;45.642;13.756;2023-05-07T05:03:04;7.40;;;4.13;;
35646;SDS011;28680;45.642;13.756;2023-05-07T05:05:32;6.50;;;3.70;;
35646;SDS011;28680;45.642;13.756;2023-05-07T05:07:58;7.22;;;3.85;;
35646;SDS011;28680;45.642;13.756;2023-05-07T05:10:24;4.55;;;3.75;;
35646;SDS011;28680;45.642;13.756;2023-05-07T05:12:50;4.40;;;3.55;;
35646;SDS011;28680;45.642;13.756;2023-05-07T05:15:16;5.43;;;4.30;;
35646;SDS011;28680;45.642;13.756;2023-05-07T05:17:42;5.32;;;3.85;;
35646;SDS011;28680;45.642;13.756;2023-05-07T05:20:08;6.40;;;3.63;;
35646;SDS011;28680;45.642;13.756;2023-05-07T05:22:35;5.85;;;3.72;;
35646;SDS011;28680;45.642;13.756;2023-05-07T05:25:01;6.75;;;3.95;;
35646;SDS011;28680;45.642;13.756;2023-05-07T05:27:28;6.07;;;4.00;;
35646;SDS011;28680;45.642;13.756;2023-05-07T05:29:54;5.88;;;4.10;;
35646;SDS011;28680;45.642;13.756;2023-05-07T05:32:20;5.82;;;4.10;;
35646;SDS011;28680;45.642;13.756;2023-05-07T05:34:47;10.32;;;4.93;;
35646;SDS011;28680;45.642;13.756;2023-05-07T05:37:13;7.55;;;3.70;;
35646;SDS011;28680;45.642;13.756;2023-05-07T05:39:39;14.82;;;4.55;;
35646;SDS011;28680;45.642;13.756;2023-05-07T05:42:05;9.40;;;4.10;;
35646;SDS011;28680;45.642;13.756;2023-05-07T05:44:31;6.65;;;4.00;;
35646;SDS011;28680;45.642;13.756;2023-05-07T05:46:56;9.45;;;4.43;;
35646;SDS011;28680;45.642;13.756;2023-05-07T05:49:24;7.13;;;4.70;;
35646;SDS011;28680;45.642;13.756;2023-05-07T05:51:50;9.15;;;4.20;;
35646;SDS011;28680;45.642;13.756;2023-05-07T05:54:16;10.13;;;4.68;;
35646;SDS011;28680;45.642;13.756;2023-05-07T05:56:42;6.68;;;4.00;;
35646;SDS011;28680;45.642;13.756;2023-05-07T05:59:08;5.28;;;3.80;;
35646;SDS011;28680;45.642;13.756;2023-05-07T06:01:34;10.30;;;4.20;;
35646;SDS011;28680;45.642;13.756;2023-05-07T06:04:00;4.78;;;3.90;;
35646;SDS011;28680;45.642;13.756;2023-05-07T06:06:25;5.53;;;4.00;;
35646;SDS011;28680;45.642;13.756;2023-05-07T06:08:52;6.57;;;4.25;;
35646;SDS011;28680;45.642;13.756;2023-05-07T06:11:18;6.57;;;4.00;;
35646;SDS011;28680;45.642;13.756;2023-05-07T06:13:45;8.63;;;4.53;;
35646;SDS011;28680;45.642;13.756;2023-05-07T06:16:11;6.80;;;4.03;;
35646;SDS011;28680;45.642;13.756;2023-05-07T06:18:36;5.85;;;3.90;;
35646;SDS011;28680;45.642;13.756;2023-05-07T06:21:03;9.32;;;4.07;;
35646;SDS011;28680;45.642;13.756;2023-05-07T06:23:29;7.80;;;3.70;;
35646;SDS011;28680;45.642;13.756;2023-05-07T06:25:55;5.45;;;3.22;;
35646;SDS011;28680;45.642;13.756;2023-05-07T06:28:20;6.93;;;3.53;;
35646;SDS011;28680;45.642;13.756;2023-05-07T06:30:46;6.75;;;3.78;;
35646;SDS011;28680;45.642;13.756;2023-05-07T06:33:14;5.80;;;3.63;;
35646;SDS011;28680;45.642;13.756;2023-05-07T06:35:41;6.80;;;4.35;;
35646;SDS011;28680;45.642;13.756;2023-05-07T06:38:06;5.97;;;3.97;;
35646;SDS011;28680;45.642;13.756;2023-05-07T06:40:32;9.52;;;5.07;;
35646;SDS011;28680;45.642;13.756;2023-05-07T06:42:58;6.75;;;4.50;;
35646;SDS011;28680;45.642;13.756;2023-05-07T06:45:24;8.38;;;5.07;;
35646;SDS011;28680;45.642;13.756;2023-05-07T06:47:50;4.72;;;3.88;;
35646;SDS011;28680;45.642;13.756;2023-05-07T06:50:16;9.27;;;4.20;;
35646;SDS011;28680;45.642;13.756;2023-05-07T06:52:42;6.03;;;4.30;;
35646;SDS011;28680;45.642;13.756;2023-05-07T06:55:08;8.65;;;4.60;;
35646;SDS011;28680;45.642;13.756;2023-05-07T06:57:34;5.75;;;4.43;;
35646;SDS011;28680;45.642;13.756;2023-05-07T07:00:00;6.53;;;4.00;;
35646;SDS011;28680;45.642;13.756;2023-05-07T07:02:26;7.20;;;3.80;;
35646;SDS011;28680;45.642;13.756;2023-05-07T07:04:52;4.90;;;3.88;;
35646;SDS011;28680;45.642;13.756;2023-05-07T07:07:17;7.60;;;4.22;;
35646;SDS011;28680;45.642;13.756;2023-05-07T07:09:43;7.10;;;4.28;;
35646;SDS011;28680;45.642;13.756;2023-05-07T07:12:09;10.35;;;4.25;;
35646;SDS011;28680;45.642;13.756;2023-05-07T07:14:35;6.18;;;3.95;;
35646;SDS011;28680;45.642;13.756;2023-05-07T07:17:01;8.73;;;4.45;;
35646;SDS011;28680;45.642;13.756;2023-05-07T07:19:27;6.28;;;3.97;;
35646;SDS011;28680;45.642;13.756;2023-05-07T07:21:53;6.78;;;4.20;;
35646;SDS011;28680;45.642;13.756;2023-05-07T07:24:19;8.43;;;4.40;;
35646;SDS011;28680;45.642;13.756;2023-05-07T07:26:46;8.48;;;3.90;;
35646;SDS011;28680;45.642;13.756;2023-05-07T07:29:12;8.27;;;4.20;;
35646;SDS011;28680;45.642;13.756;2023-05-07T07:31:38;12.02;;;5.85;;
35646;SDS011;28680;45.642;13.756;2023-05-07T07:34:04;7.82;;;4.80;;
35646;SDS011;28680;45.642;13.756;2023-05-07T07:36:31;7.85;;;4.25;;
35646;SDS011;28680;45.642;13.756;2023-05-07T07:38:56;7.55;;;4.13;;
35646;SDS011;28680;45.642;13.756;2023-05-07T07:41:22;7.35;;;4.50;;
35646;SDS011;28680;45.642;13.756;2023-05-07T07:43:48;7.35;;;4.60;;
35646;SDS011;28680;45.642;13.756;2023-05-07T07:46:14;4.28;;;3.70;;
35646;SDS011;28680;45.642;13.756;2023-05-07T07:48:40;4.93;;;3.65;;
35646;SDS011;28680;45.642;13.756;2023-05-07T07:51:06;4.57;;;3.33;;
35646;SDS011;28680;45.642;13.756;2023-05-07T07:53:31;7.00;;;4.60;;
35646;SDS011;28680;45.642;13.756;2023-05-07T07:55:57;6.65;;;4.65;;
35646;SDS011;28680;45.642;13.756;2023-05-07T07:58:23;4.75;;;3.20;;
35646;SDS011;28680;45.642;13.756;2023-05-07T08:00:49;8.20;;;4.90;;
35646;SDS011;28680;45.642;13.756;2023-05-07T08:03:16;6.03;;;4.55;;
35646;SDS011;28680;45.642;13.756;2023-05-07T08:05:42;5.10;;;3.50;;
35646;SDS011;28680;45.642;13.756;2023-05-07T08:08:08;5.60;;;4.10;;
35646;SDS011;28680;45.642;13.756;2023-05-07T08:10:34;5.80;;;3.75;;
35646;SDS011;28680;45.642;13.756;2023-05-07T08:13:03;5.60;;;4.18;;
35646;SDS011;28680;45.642;13.756;2023-05-07T08:15:29;6.90;;;4.97;;
35646;SDS011;28680;45.642;13.756;2023-05-07T08:17:56;7.30;;;4.90;;
35646;SDS011;28680;45.642;13.756;2023-05-07T08:20:23;4.60;;;3.80;;
35646;SDS011;28680;45.642;13.756;2023-05-07T08:22:49;14.45;;;5.35;;
35646;SDS011;28680;45.642;13.756;2023-05-07T08:25:16;8.60;;;5.28;;
35646;SDS011;28680;45.642;13.756;2023-05-07T08:27:42;7.63;;;4.65;;
35646;SDS011;28680;45.642;13.756;2023-05-07T08:30:09;5.10;;;3.45;;
35646;SDS011;28680;45.642;13.756;2023-05-07T08:32:36;7.63;;;4.38;;
35646;SDS011;28680;45.642;13.756;2023-05-07T08:35:01;5.60;;;4.25;;
35646;SDS011;28680;45.642;13.756;2023-05-07T08:37:28;4.60;;;3.83;;
35646;SDS011;28680;45.642;13.756;2023-05-07T08:39:54;7.45;;;4.40;;
35646;SDS011;28680;45.642;13.756;2023-05-07T08:42:20;6.05;;;4.30;;
35646;SDS011;28680;45.642;13.756;2023-05-07T08:44:48;5.97;;;3.90;;
35646;SDS011;28680;45.642;13.756;2023-05-07T08:47:19;5.03;;;3.92;;
35646;SDS011;28680;45.642;13.756;2023-05-07T08:49:48;4.22;;;3.53;;
35646;SDS011;28680;45.642;13.756;2023-05-07T08:52:15;7.60;;;3.95;;
35646;SDS011;28680;45.642;13.756;2023-05-07T08:54:41;6.10;;;3.90;;
35646;SDS011;28680;45.642;13.756;2023-05-07T08:57:08;6.10;;;4.32;;
35646;SDS011;28680;45.642;13.756;2023-05-07T08:59:34;5.15;;;3.92;;
35646;SDS011;28680;45.642;13.756;2023-05-07T09:02:00;6.47;;;4.25;;
35646;SDS011;28680;45.642;13.756;2023-05-07T09:04:26;7.13;;;5.35;;
35646;SDS011;28680;45.642;13.756;2023-05-07T09:06:52;5.75;;;4.20;;
35646;SDS011;28680;45.642;13.756;2023-05-07T09:09:18;6.15;;;4.40;;
35646;SDS011;28680;45.642;13.756;2023-05-07T09:11:46;5.40;;;3.80;;
35646;SDS011;28680;45.642;13.756;2023-05-07T09:14:12;8.63;;;5.10;;
35646;SDS011;28680;45.642;13.756;2023-05-07T09:16:38;7.38;;;4.97;;
35646;SDS011;28680;45.642;13.756;2023-05-07T09:19:04;7.72;;;3.78;;
35646;SDS011;28680;45.642;13.756;2023-05-07T09:21:30;9.32;;;4.75;;
35646;SDS011;28680;45.642;13.756;2023-05-07T09:23:56;9.20;;;5.43;;
35646;SDS011;28680;45.642;13.756;2023-05-07T09:26:22;6.07;;;4.90;;
35646;SDS011;28680;45.642;13.756;2023-05-07T09:28:49;7.00;;;5.10;;
35646;SDS011;28680;45.642;13.756;2023-05-07T09:31:16;6.88;;;5.20;;
35646;SDS011;28680;45.642;13.756;2023-05-07T09:33:43;14.88;;;11.27;;
35646;SDS011;28680;45.642;13.756;2023-05-07T09:36:09;7.10;;;4.90;;
35646;SDS011;28680;45.642;13.756;2023-05-07T09:38:36;9.07;;;5.25;;
35646;SDS011;28680;45.642;13.756;2023-05-07T09:43:34;9.68;;;6.32;;
35646;SDS011;28680;45.642;13.756;2023-05-07T09:46:03;9.20;;;6.38;;
35646;SDS011;28680;45.642;13.756;2023-05-07T09:48:41;7.95;;;6.05;;
35646;SDS011;28680;45.642;13.756;2023-05-07T09:54:27;14.25;;;5.65;;
35646;SDS011;28680;45.642;13.756;2023-05-07T09:56:54;6.30;;;4.63;;
35646;SDS011;28680;45.642;13.756;2023-05-07T09:59:21;13.65;;;5.60;;
35646;SDS011;28680;45.642;13.756;2023-05-07T10:01:48;7.43;;;6.20;;
35646;SDS011;28680;45.642;13.756;2023-05-07T10:04:17;7.57;;;5.60;;
35646;SDS011;28680;45.642;13.756;2023-05-07T10:06:44;8.52;;;5.93;;
35646;SDS011;28680;45.642;13.756;2023-05-07T10:09:11;10.48;;;5.80;;
35646;SDS011;28680;45.642;13.756;2023-05-07T10:11:42;8.75;;;5.80;;
35646;SDS011;28680;45.642;13.756;2023-05-07T10:14:08;7.03;;;5.25;;
35646;SDS011;28680;45.642;13.756;2023-05-07T10:16:35;6.82;;;5.35;;
35646;SDS011;28680;45.642;13.756;2023-05-07T10:19:03;8.40;;;5.45;;
35646;SDS011;28680;45.642;13.756;2023-05-07T10:21:30;8.68;;;6.28;;
35646;SDS011;28680;45.642;13.756;2023-05-07T10:24:03;7.90;;;6.28;;
35646;SDS011;28680;45.642;13.756;2023-05-07T10:26:35;8.85;;;6.25;;
35646;SDS011;28680;45.642;13.756;2023-05-07T10:29:15;6.60;;;5.90;;
35646;SDS011;28680;45.642;13.756;2023-05-07T10:31:54;7.15;;;5.95;;
35646;SDS011;28680;45.642;13.756;2023-05-07T10:34:36;7.03;;;5.82;;
35646;SDS011;28680;45.642;13.756;2023-05-07T10:37:08;6.78;;;5.80;;
35646;SDS011;28680;45.642;13.756;2023-05-07T10:39:35;5.80;;;4.90;;
35646;SDS011;28680;45.642;13.756;2023-05-07T10:42:12;6.57;;;5.50;;
35646;SDS011;28680;45.642;13.756;2023-05-07T10:44:39;10.88;;;5.28;;
35646;SDS011;28680;45.642;13.756;2023-05-07T10:47:12;7.70;;;5.55;;
35646;SDS011;28680;45.642;13.756;2023-05-07T10:52:16;8.55;;;6.50;;
35646;SDS011;28680;45.642;13.756;2023-05-07T10:54:46;11.27;;;8.45;;
35646;SDS011;28680;45.642;13.756;2023-05-07T10:57:33;12.38;;;9.70;;
35646;SDS011;28680;45.642;13.756;2023-05-07T11:00:01;8.38;;;5.65;;
35646;SDS011;28680;45.642;13.756;2023-05-07T11:05:26;10.75;;;9.13;;
35646;SDS011;28680;45.642;13.756;2023-05-07T11:08:03;7.05;;;5.85;;
35646;SDS011;28680;45.642;13.756;2023-05-07T11:10:47;7.00;;;5.75;;
35646;SDS011;28680;45.642;13.756;2023-05-07T11:13:18;8.40;;;6.25;;
35646;SDS011;28680;45.642;13.756;2023-05-07T11:18:52;8.25;;;6.28;;
35646;SDS011;28680;45.642;13.756;2023-05-07T11:24:01;5.75;;;4.18;;
35646;SDS011;28680;45.642;13.756;2023-05-07T11:26:29;6.97;;;4.50;;
35646;SDS011;28680;45.642;13.756;2023-05-07T11:29:10;6.00;;;4.22;;
35646;SDS011;28680;45.642;13.756;2023-05-07T11:31:41;6.57;;;4.55;;
35646;SDS011;28680;45.642;13.756;2023-05-07T11:34:08;5.53;;;4.70;;
35646;SDS011;28680;45.642;13.756;2023-05-07T11:36:34;11.80;;;6.15;;
35646;SDS011;28680;45.642;13.756;2023-05-07T11:39:22;5.85;;;4.63;;
35646;SDS011;28680;45.642;13.756;2023-05-07T11:41:57;5.00;;;4.00;;
35646;SDS011;28680;45.642;13.756;2023-05-07T11:44:43;7.78;;;4.47;;
35646;SDS011;28680;45.642;13.756;2023-05-07T11:47:11;6.82;;;4.65;;
35646;SDS011;28680;45.642;13.756;2023-05-07T11:49:42;6.65;;;5.20;;
35646;SDS011;28680;45.642;13.756;2023-05-07T11:52:09;9.43;;;5.05;;
35646;SDS011;28680;45.642;13.756;2023-05-07T11:54:35;5.22;;;4.38;;
35646;SDS011;28680;45.642;13.756;2023-05-07T11:57:02;6.68;;;4.90;;
35646;SDS011;28680;45.642;13.756;2023-05-07T11:59:28;5.28;;;4.50;;
35646;SDS011;28680;45.642;13.756;2023-05-07T12:01:57;7.47;;;5.15;;
35646;SDS011;28680;45.642;13.756;2023-05-07T12:04:24;6.30;;;4.82;;
35646;SDS011;28680;45.642;13.756;2023-05-07T12:06:53;5.43;;;4.38;;
35646;SDS011;28680;45.642;13.756;2023-05-07T12:09:20;6.32;;;4.93;;
35646;SDS011;28680;45.642;13.756;2023-05-07T12:11:46;4.85;;;4.13;;
35646;SDS011;28680;45.642;13.756;2023-05-07T12:14:12;7.65;;;4.82;;
35646;SDS011;28680;45.642;13.756;2023-05-07T12:16:40;5.63;;;4.57;;
35646;SDS011;28680;45.642;13.756;2023-05-07T12:19:08;4.63;;;4.00;;
35646;SDS011;28680;45.642;13.756;2023-05-07T12:21:37;5.05;;;4.30;;
35646;SDS011;28680;45.642;13.756;2023-05-07T12:24:04;12.65;;;4.93;;
35646;SDS011;28680;45.642;13.756;2023-05-07T12:26:37;5.50;;;3.90;;
35646;SDS011;28680;45.642;13.756;2023-05-07T12:29:05;4.47;;;3.85;;
35646;SDS011;28680;45.642;13.756;2023-05-07T12:31:32;7.28;;;4.90;;
35646;SDS011;28680;45.642;13.756;2023-05-07T12:33:58;10.80;;;5.07;;
35646;SDS011;28680;45.642;13.756;2023-05-07T12:36:24;5.00;;;3.70;;
35646;SDS011;28680;45.642;13.756;2023-05-07T12:38:50;5.45;;;4.25;;
35646;SDS011;28680;45.642;13.756;2023-05-07T12:41:16;5.32;;;3.60;;
35646;SDS011;28680;45.642;13.756;2023-05-07T12:43:46;4.90;;;4.00;;
35646;SDS011;28680;45.642;13.756;2023-05-07T12:46:12;4.55;;;3.83;;
35646;SDS011;28680;45.642;13.756;2023-05-07T12:48:43;6.45;;;4.57;;
35646;SDS011;28680;45.642;13.756;2023-05-07T12:51:13;4.60;;;3.80;;
35646;SDS011;28680;45.642;13.756;2023-05-07T12:53:41;4.63;;;3.47;;
35646;SDS011;28680;45.642;13.756;2023-05-07T12:56:07;5.63;;;3.60;;
35646;SDS011;28680;45.642;13.756;2023-05-07T12:58:34;5.10;;;3.83;;
35646;SDS011;28680;45.642;13.756;2023-05-07T13:01:04;5.32;;;4.68;;
35646;SDS011;28680;45.642;13.756;2023-05-07T13:03:36;6.80;;;4.72;;
35646;SDS011;28680;45.642;13.756;2023-05-07T13:06:04;6.82;;;5.30;;
35646;SDS011;28680;45.642;13.756;2023-05-07T13:08:35;7.75;;;5.47;;
35646;SDS011;28680;45.642;13.756;2023-05-07T13:11:06;6.88;;;4.22;;
35646;SDS011;28680;45.642;13.756;2023-05-07T13:13:34;9.68;;;4.38;;
35646;SDS011;28680;45.642;13.756;2023-05-07T13:16:02;4.90;;;3.30;;
35646;SDS011;28680;45.642;13.756;2023-05-07T13:18:30;5.75;;;3.63;;
35646;SDS011;28680;45.642;13.756;2023-05-07T13:20:56;4.70;;;4.20;;
35646;SDS011;28680;45.642;13.756;2023-05-07T13:23:23;6.78;;;3.38;;
35646;SDS011;28680;45.642;13.756;2023-05-07T13:25:50;5.82;;;3.83;;
35646;SDS011;28680;45.642;13.756;2023-05-07T13:28:18;4.80;;;3.20;;
35646;SDS011;28680;45.642;13.756;2023-05-07T13:30:45;6.55;;;4.05;;
35646;SDS011;28680;45.642;13.756;2023-05-07T13:33:11;5.55;;;3.60;;
35646;SDS011;28680;45.642;13.756;2023-05-07T13:35:38;5.60;;;3.67;;
35646;SDS011;28680;45.642;13.756;2023-05-07T13:38:04;6.45;;;4.40;;
35646;SDS011;28680;45.642;13.756;2023-05-07T13:40:33;8.23;;;5.00;;
35646;SDS011;28680;45.642;13.756;2023-05-07T13:43:00;5.85;;;4.78;;
35646;SDS011;28680;45.642;13.756;2023-05-07T13:45:29;6.70;;;5.60;;
35646;SDS011;28680;45.642;13.756;2023-05-07T13:47:55;6.63;;;4.50;;
35646;SDS011;28680;45.642;13.756;2023-05-07T13:50:22;6.97;;;5.72;;
35646;SDS011;28680;45.642;13.756;2023-05-07T13:52:48;6.40;;;4.60;;
35646;SDS011;28680;45.642;13.756;2023-05-07T13:55:20;6.60;;;4.35;;
35646;SDS011;28680;45.642;13.756;2023-05-07T13:57:53;4.63;;;4.18;;
35646;SDS011;28680;45.642;13.756;2023-05-07T14:02:48;5.25;;;4.00;;
35646;SDS011;28680;45.642;13.756;2023-05-07T14:05:14;5.53;;;3.90;;
35646;SDS011;28680;45.642;13.756;2023-05-07T14:07:40;4.80;;;3.67;;
35646;SDS011;28680;45.642;13.756;2023-05-07T14:10:06;6.40;;;4.68;;
35646;SDS011;28680;45.642;13.756;2023-05-07T14:12:33;6.85;;;4.70;;
35646;SDS011;28680;45.642;13.756;2023-05-07T14:14:59;5.75;;;4.68;;
35646;SDS011;28680;45.642;13.756;2023-05-07T14:17:25;5.53;;;4.28;;
35646;SDS011;28680;45.642;13.756;2023-05-07T14:19:52;7.60;;;4.93;;
35646;SDS011;28680;45.642;13.756;2023-05-07T14:22:23;4.68;;;3.80;;
35646;SDS011;28680;45.642;13.756;2023-05-07T14:24:49;5.75;;;3.85;;
35646;SDS011;28680;45.642;13.756;2023-05-07T14:27:15;4.95;;;3.75;;
35646;SDS011;28680;45.642;13.756;2023-05-07T14:29:41;6.95;;;4.55;;
35646;SDS011;28680;45.642;13.756;2023-05-07T14:32:08;5.40;;;4.45;;
35646;SDS011;28680;45.642;13.756;2023-05-07T14:34:34;7.60;;;4.13;;
35646;SDS011;28680;45.642;13.756;2023-05-07T14:37:00;5.15;;;3.58;;
35646;SDS011;28680;45.642;13.756;2023-05-07T14:39:26;6.78;;;4.30;;
35646;SDS011;28680;45.642;13.756;2023-05-07T14:41:52;3.60;;;3.30;;
35646;SDS011;28680;45.642;13.756;2023-05-07T14:44:20;6.22;;;3.70;;
35646;SDS011;28680;45.642;13.756;2023-05-07T14:46:46;5.43;;;3.38;;
35646;SDS011;28680;45.642;13.756;2023-05-07T14:49:13;3.45;;;3.10;;
35646;SDS011;28680;45.642;13.756;2023-05-07T14:51:45;4.78;;;3.63;;